Terminal Aerodrome Forecast
Issued by NWS

Current Version | Previous Version | Text Only | Print | Product List | Glossary On
Versions: 1 2 3 4 5 6 7 8 9 10 11 12 13
540
FTUS42 TJSJ 290536
TAFJMZ
TAF
TJMZ 290536Z 2906/3006 VRB05KT P6SM FEW030
     FM291600 27009KT P6SM VCTS SCT030CB BKN050
     FM292300 06006KT P6SM SCT060
      AMD NOT SKED=

USA.gov is the U.S. government's official web portal to all federal, state and local government web resources and services.